createdAt,value
2022-08-07T00:01:44.340Z,22.99
2022-08-07T00:04:06.715Z,22.98
2022-08-07T00:06:40.895Z,22.96
2022-08-07T00:09:17.026Z,22.89
2022-08-07T00:11:55.660Z,22.87
2022-08-07T00:14:31.497Z,22.83
2022-08-07T00:17:02.494Z,22.76
2022-08-07T00:20:00.156Z,22.80
2022-08-07T00:22:24.592Z,22.78
2022-08-07T00:25:16.454Z,22.74
2022-08-07T00:27:53.696Z,22.74
2022-08-07T00:30:27.571Z,22.71
2022-08-07T00:32:57.375Z,22.69
2022-08-07T00:35:29.727Z,22.69
2022-08-07T00:37:59.037Z,22.69
2022-08-07T00:40:36.692Z,22.68
2022-08-07T00:43:59.142Z,22.67
2022-08-07T00:46:01.724Z,22.67
2022-08-07T00:48:32.440Z,22.65
2022-08-07T00:51:02.694Z,22.66
2022-08-07T00:53:39.272Z,22.63
2022-08-07T00:56:18.550Z,22.64
2022-08-07T00:58:47.007Z,22.63
2022-08-07T01:01:18.226Z,22.59
2022-08-07T01:03:56.941Z,22.59
2022-08-07T01:06:29.326Z,22.57
2022-08-07T01:09:01.026Z,22.57
2022-08-07T01:12:09.622Z,22.57
2022-08-07T01:14:28.554Z,22.55
2022-08-07T01:16:57.709Z,22.55
2022-08-07T01:19:32.646Z,22.51
2022-08-07T01:22:03.150Z,22.52
2022-08-07T01:24:32.530Z,22.42
2022-08-07T01:27:01.281Z,22.48
2022-08-07T01:29:31.215Z,22.51
2022-08-07T01:32:00.339Z,22.42
2022-08-07T01:34:33.819Z,22.47
2022-08-07T01:37:03.042Z,22.48
2022-08-07T01:39:40.437Z,22.46
2022-08-07T01:42:37.806Z,22.46
2022-08-07T01:45:09.848Z,22.43
2022-08-07T01:48:20.136Z,22.42
2022-08-07T01:50:32.791Z,22.40
2022-08-07T01:53:08.588Z,22.41
2022-08-07T01:55:45.456Z,22.38
2022-08-07T01:58:27.523Z,22.36
2022-08-07T02:01:59.912Z,22.35
2022-08-07T02:04:24.112Z,22.34
2022-08-07T02:06:57.362Z,22.29
2022-08-07T02:09:52.198Z,22.24
2022-08-07T02:12:29.071Z,22.20
2022-08-07T02:15:01.598Z,22.16
2022-08-07T02:17:36.103Z,22.12
2022-08-07T02:20:17.295Z,22.05
2022-08-07T02:22:54.934Z,22.00
2022-08-07T02:26:10.449Z,21.96
2022-08-07T02:28:15.472Z,21.94
2022-08-07T02:30:55.035Z,21.83
2022-08-07T02:33:41.808Z,21.78
2022-08-07T02:36:26.856Z,21.74
2022-08-07T02:39:01.112Z,21.65
2022-08-07T02:41:33.571Z,21.62
2022-08-07T02:44:07.187Z,21.60
2022-08-07T02:46:37.467Z,21.54
2022-08-07T02:49:55.736Z,21.50
2022-08-07T02:52:08.353Z,21.44
2022-08-07T02:54:41.593Z,21.33
2022-08-07T02:57:14.040Z,21.27
2022-08-07T02:59:54.784Z,21.20
2022-08-07T03:02:23.725Z,21.15
2022-08-07T03:04:56.386Z,21.15
2022-08-07T03:07:43.095Z,21.11
2022-08-07T03:10:17.900Z,21.09
2022-08-07T03:12:46.925Z,21.05
2022-08-07T03:15:16.024Z,21.03
2022-08-07T03:18:00.476Z,20.92
2022-08-07T03:20:28.686Z,20.96
2022-08-07T03:22:57.896Z,20.94
2022-08-07T03:25:40.087Z,20.91
2022-08-07T03:28:38.061Z,20.88
2022-08-07T03:31:18.646Z,20.89
2022-08-07T03:33:51.358Z,20.86
2022-08-07T03:36:21.787Z,20.79
2022-08-07T03:38:57.839Z,20.78
2022-08-07T03:41:42.475Z,20.76
2022-08-07T03:44:16.147Z,20.72
2022-08-07T03:47:13.248Z,20.70
2022-08-07T03:49:38.581Z,20.68
2022-08-07T03:52:07.599Z,20.72
2022-08-07T03:54:54.270Z,20.66
2022-08-07T03:58:34.573Z,20.66
2022-08-07T04:00:15.145Z,20.69
2022-08-07T04:02:46.544Z,20.65
2022-08-07T04:05:19.316Z,20.66
2022-08-07T04:07:51.999Z,20.64
2022-08-07T04:10:20.745Z,20.65
2022-08-07T04:12:52.148Z,20.68
2022-08-07T04:15:23.983Z,20.71
2022-08-07T04:18:57.612Z,20.75
2022-08-07T04:20:43.089Z,20.74
2022-08-07T04:23:23.871Z,20.64
2022-08-07T04:26:11.058Z,20.81
2022-08-07T04:28:41.852Z,20.84
2022-08-07T04:31:10.535Z,20.92
2022-08-07T04:33:55.174Z,20.89
2022-08-07T04:36:26.214Z,20.88
2022-08-07T04:38:54.531Z,20.95
2022-08-07T04:41:22.178Z,20.90
2022-08-07T04:44:09.663Z,20.89
2022-08-07T04:47:04.906Z,20.91
2022-08-07T04:49:57.392Z,20.91
2022-08-07T04:52:32.336Z,20.93
2022-08-07T04:55:15.521Z,21.05
2022-08-07T04:58:33.779Z,21.02
2022-08-07T05:01:01.760Z,21.19
2022-08-07T05:04:12.418Z,21.19
2022-08-07T05:07:36.494Z,21.26
2022-08-07T05:10:19.616Z,21.29
2022-08-07T05:12:58.416Z,21.33
2022-08-07T05:15:37.617Z,21.44
2022-08-07T05:18:10.365Z,21.43
2022-08-07T05:20:45.809Z,21.44
2022-08-07T05:23:19.662Z,21.59
2022-08-07T05:26:13.221Z,21.78
2022-08-07T05:28:46.486Z,21.55
2022-08-07T05:31:19.296Z,21.40
2022-08-07T05:33:51.374Z,21.39
2022-08-07T05:36:35.612Z,21.75
2022-08-07T05:40:06.461Z,21.73
2022-08-07T05:42:01.468Z,21.86
2022-08-07T05:44:33.705Z,21.75
2022-08-07T05:47:18.148Z,21.84
2022-08-07T05:49:52.119Z,22.02
2022-08-07T05:52:20.590Z,22.05
2022-08-07T05:54:58.743Z,21.93
2022-08-07T05:57:34.594Z,22.01
2022-08-07T06:00:08.227Z,22.01
2022-08-07T06:02:50.445Z,22.25
2022-08-07T06:05:28.334Z,22.40
2022-08-07T06:08:09.069Z,22.50
2022-08-07T06:10:51.238Z,22.63
2022-08-07T06:13:31.516Z,22.44
2022-08-07T06:16:10.237Z,22.50
2022-08-07T06:18:43.103Z,22.50
2022-08-07T06:22:16.519Z,22.72
2022-08-07T06:24:46.122Z,22.92
2022-08-07T06:26:56.820Z,22.70
2022-08-07T06:29:29.607Z,22.79
2022-08-07T06:31:57.411Z,22.88
2022-08-07T06:34:29.741Z,22.80
2022-08-07T06:36:58.476Z,22.95
2022-08-07T06:40:17.476Z,22.73
2022-08-07T06:42:19.565Z,22.81
2022-08-07T06:45:02.412Z,22.62
2022-08-07T06:47:38.887Z,22.65
2022-08-07T06:50:19.199Z,22.53
2022-08-07T06:52:53.211Z,22.53
2022-08-07T06:56:00.820Z,22.64
2022-08-07T06:58:24.491Z,22.49
2022-08-07T07:00:57.241Z,22.73
2022-08-07T07:03:26.522Z,22.69
2022-08-07T07:06:13.067Z,22.74
2022-08-07T07:08:46.656Z,23.12
2022-08-07T07:12:08.216Z,23.47
2022-08-07T07:14:08.347Z,23.37
2022-08-07T07:16:49.595Z,23.52
2022-08-07T07:19:55.071Z,23.18
2022-08-07T07:22:35.930Z,23.47
2022-08-07T07:26:30.460Z,23.62
2022-08-07T07:28:42.776Z,23.44
2022-08-07T07:31:08.063Z,23.57
2022-08-07T07:33:39.345Z,23.40
2022-08-07T07:36:12.929Z,23.65
2022-08-07T07:38:43.544Z,24.08
2022-08-07T07:41:16.491Z,23.52
2022-08-07T07:44:14.218Z,23.81
2022-08-07T07:46:55.648Z,23.96
2022-08-07T07:50:35.015Z,23.71
2022-08-07T07:52:16.468Z,23.40
2022-08-07T07:54:50.707Z,23.57
2022-08-07T07:57:43.948Z,23.52
2022-08-07T08:00:11.167Z,23.90
2022-08-07T08:03:04.570Z,23.75
2022-08-07T08:05:42.835Z,23.98
2022-08-07T08:08:35.470Z,24.49
2022-08-07T08:11:04.293Z,23.74
2022-08-07T08:13:52.909Z,24.14
2022-08-07T08:16:29.986Z,24.24
2022-08-07T08:19:00.490Z,23.85
2022-08-07T08:22:07.710Z,24.33
2022-08-07T08:25:18.598Z,24.30
2022-08-07T08:27:56.647Z,24.30
2022-08-07T08:30:31.968Z,24.06
2022-08-07T08:33:03.620Z,23.75
2022-08-07T08:35:43.124Z,24.23
2022-08-07T08:38:17.521Z,24.28
2022-08-07T08:40:53.622Z,24.17
2022-08-07T08:43:32.110Z,24.62
2022-08-07T08:46:21.966Z,24.82
2022-08-07T08:49:46.343Z,24.78
2022-08-07T08:52:36.197Z,24.60
2022-08-07T08:55:53.156Z,25.02
2022-08-07T08:58:37.606Z,24.78
2022-08-07T09:01:18.427Z,24.91
2022-08-07T09:04:07.776Z,25.17
2022-08-07T09:06:48.318Z,25.36
2022-08-07T09:09:43.655Z,25.44
2022-08-07T09:12:31.609Z,25.42
2022-08-07T09:16:22.554Z,24.92
2022-08-07T09:18:27.904Z,25.83
2022-08-07T09:21:04.454Z,25.63
2022-08-07T09:24:31.666Z,26.26
2022-08-07T09:26:38.498Z,26.34
2022-08-07T09:30:06.239Z,25.97
2022-08-07T09:32:53.577Z,25.98
2022-08-07T09:36:05.339Z,26.55
2022-08-07T09:38:37.437Z,26.74
2022-08-07T09:41:58.456Z,26.93
2022-08-07T09:44:58.735Z,26.64
2022-08-07T09:48:04.943Z,27.18
2022-08-07T09:50:34.938Z,27.48
2022-08-07T09:53:05.671Z,26.69
2022-08-07T09:56:10.337Z,26.58
2022-08-07T09:59:02.524Z,27.11
2022-08-07T10:01:54.462Z,26.62
2022-08-07T10:04:52.942Z,26.51
2022-08-07T10:08:02.533Z,27.07
2022-08-07T10:11:17.064Z,26.81
2022-08-07T10:14:00.534Z,28.00
2022-08-07T10:16:59.552Z,27.38
2022-08-07T10:19:56.112Z,28.11
2022-08-07T10:22:45.451Z,27.44
2022-08-07T10:25:24.996Z,28.04
2022-08-07T10:28:24.156Z,27.76
2022-08-07T10:31:28.164Z,27.53
2022-08-07T10:34:17.843Z,27.17
2022-08-07T10:36:58.380Z,27.79
2022-08-07T10:39:57.530Z,26.71
2022-08-07T10:43:01.955Z,26.51
2022-08-07T10:45:44.154Z,27.39
2022-08-07T10:48:23.848Z,27.48
2022-08-07T10:51:00.020Z,27.82
2022-08-07T10:53:44.231Z,27.91
2022-08-07T10:56:36.389Z,27.92
2022-08-07T10:59:21.165Z,28.21
2022-08-07T11:02:33.099Z,27.48
2022-08-07T11:05:35.743Z,27.81
2022-08-07T11:08:39.058Z,27.45
2022-08-07T11:11:20.240Z,28.07
2022-08-07T11:14:43.662Z,28.42
2022-08-07T11:17:01.929Z,28.05
2022-08-07T11:19:58.199Z,27.36
2022-08-07T11:22:33.363Z,27.21
2022-08-07T11:25:21.270Z,26.94
2022-08-07T11:28:04.759Z,26.75
2022-08-07T11:30:51.420Z,27.71
2022-08-07T11:33:53.580Z,27.24
2022-08-07T11:36:53.875Z,27.57
2022-08-07T11:39:59.407Z,27.58
2022-08-07T11:42:44.896Z,27.58
2022-08-07T11:45:53.699Z,27.44
2022-08-07T11:49:04.362Z,28.17
2022-08-07T11:51:51.835Z,28.09
2022-08-07T11:54:54.552Z,28.20
2022-08-07T11:58:01.500Z,27.78
2022-08-07T12:00:40.441Z,27.98
2022-08-07T12:03:41.499Z,28.07
2022-08-07T12:06:38.881Z,28.27
2022-08-07T12:09:23.200Z,28.29
2022-08-07T12:12:09.347Z,28.51
2022-08-07T12:15:16.993Z,29.11
2022-08-07T12:18:12.264Z,28.27
2022-08-07T12:20:49.214Z,28.70
2022-08-07T12:24:04.747Z,28.18
2022-08-07T12:26:46.691Z,28.20
2022-08-07T12:29:37.527Z,29.13
2022-08-07T12:32:18.466Z,29.00
2022-08-07T12:34:49.583Z,28.49
2022-08-07T12:37:23.351Z,28.77
2022-08-07T12:39:58.818Z,28.61
2022-08-07T12:42:32.038Z,28.72
2022-08-07T12:45:07.187Z,29.38
2022-08-07T12:47:53.585Z,28.72
2022-08-07T12:50:54.782Z,28.74
2022-08-07T12:54:02.794Z,28.92
2022-08-07T12:56:37.179Z,28.29
2022-08-07T12:59:08.655Z,28.59
2022-08-07T13:02:33.035Z,28.29
2022-08-07T13:06:03.703Z,28.98
2022-08-07T13:08:18.953Z,28.75
2022-08-07T13:11:14.239Z,28.92
2022-08-07T13:14:08.006Z,29.28
2022-08-07T13:16:43.436Z,29.43
2022-08-07T13:19:51.992Z,29.47
2022-08-07T13:22:52.571Z,28.80
2022-08-07T13:25:30.066Z,29.25
2022-08-07T13:28:10.904Z,29.57
2022-08-07T13:31:02.101Z,29.18
2022-08-07T13:34:30.565Z,29.83
2022-08-07T13:36:43.396Z,29.82
2022-08-07T13:39:28.503Z,29.39
2022-08-07T13:42:18.905Z,29.06
2022-08-07T13:44:55.424Z,29.79
2022-08-07T13:48:06.132Z,29.56
2022-08-07T13:50:32.720Z,29.32
2022-08-07T13:53:21.821Z,29.60
2022-08-07T13:55:54.852Z,29.60
2022-08-07T13:58:50.409Z,29.26
2022-08-07T14:01:28.540Z,29.33
2022-08-07T14:04:12.809Z,29.79
2022-08-07T14:06:45.835Z,29.74
2022-08-07T14:10:02.605Z,29.48
2022-08-07T14:12:27.339Z,29.88
2022-08-07T14:15:04.688Z,29.59
2022-08-07T14:18:28.057Z,29.68
2022-08-07T14:20:41.127Z,29.81
2022-08-07T14:23:31.462Z,29.63
2022-08-07T14:26:28.007Z,29.79
2022-08-07T14:29:04.527Z,30.09
2022-08-07T14:31:56.529Z,30.02
2022-08-07T14:34:30.345Z,29.73
2022-08-07T14:37:01.790Z,30.01
2022-08-07T14:40:18.193Z,29.64
2022-08-07T14:42:32.420Z,29.82
2022-08-07T14:47:53.049Z,30.00
2022-08-07T14:50:28.848Z,30.32
2022-08-07T14:55:56.233Z,30.23
2022-08-07T14:58:28.246Z,30.16
2022-08-07T15:00:59.573Z,30.33
2022-08-07T15:03:52.599Z,30.38
2022-08-07T15:06:25.213Z,29.94
2022-08-07T15:08:55.010Z,30.10
2022-08-07T15:11:53.124Z,29.92
2022-08-07T15:14:22.654Z,30.03
2022-08-07T15:17:02.757Z,30.03
2022-08-07T15:20:23.561Z,30.00
2022-08-07T15:22:33.551Z,30.05
2022-08-07T15:25:17.243Z,30.02
2022-08-07T15:28:01.981Z,30.03
2022-08-07T15:37:03.330Z,29.81
2022-08-07T15:39:10.392Z,30.09
2022-08-07T15:42:46.105Z,30.00
2022-08-07T15:44:52.094Z,29.74
2022-08-07T15:48:01.159Z,29.51
2022-08-07T15:53:13.088Z,29.58
2022-08-07T15:56:02.278Z,29.48
2022-08-07T15:58:58.845Z,29.52
2022-08-07T16:01:38.785Z,29.62
2022-08-07T16:04:15.552Z,29.46
2022-08-07T16:06:51.939Z,29.45
2022-08-07T16:09:41.013Z,29.40
2022-08-07T16:12:28.537Z,29.32
2022-08-07T16:15:42.148Z,29.22
2022-08-07T16:18:49.326Z,29.26
2022-08-07T16:22:05.243Z,29.25
2022-08-07T16:24:52.557Z,29.21
2022-08-07T16:27:39.732Z,29.11
2022-08-07T16:30:30.217Z,29.17
2022-08-07T16:34:06.835Z,29.13
2022-08-07T16:36:32.116Z,29.04
2022-08-07T16:39:21.062Z,28.97
2022-08-07T16:42:36.577Z,28.95
2022-08-07T16:46:33.694Z,28.93
2022-08-07T16:48:34.471Z,28.89
2022-08-07T16:52:48.715Z,28.72
2022-08-07T16:55:11.462Z,28.77
2022-08-07T16:58:02.156Z,28.71
2022-08-07T17:00:41.699Z,28.66
2022-08-07T17:03:59.539Z,28.61
2022-08-07T17:06:44.880Z,28.55
2022-08-07T17:10:06.053Z,28.46
2022-08-07T17:13:01.002Z,28.40
2022-08-07T17:15:50.572Z,28.34
2022-08-07T17:18:32.063Z,28.29
2022-08-07T17:21:02.145Z,28.23
2022-08-07T17:24:01.475Z,28.19
2022-08-07T17:26:50.175Z,28.13
2022-08-07T17:30:15.416Z,28.06
2022-08-07T17:32:30.526Z,28.02
2022-08-07T17:35:51.267Z,27.90
2022-08-07T17:38:50.265Z,27.83
2022-08-07T17:42:02.086Z,27.75
2022-08-07T17:44:34.061Z,27.67
2022-08-07T17:47:38.332Z,27.55
2022-08-07T17:50:19.698Z,27.48
2022-08-07T17:54:00.151Z,27.32
2022-08-07T17:56:32.706Z,27.34
2022-08-07T17:59:20.113Z,27.28
2022-08-07T18:01:57.639Z,27.25
2022-08-07T18:04:51.771Z,27.18
2022-08-07T18:07:28.513Z,27.13
2022-08-07T18:12:07.257Z,27.07
2022-08-07T18:13:55.446Z,27.01
2022-08-07T18:17:18.707Z,26.93
2022-08-07T18:21:10.228Z,26.85
2022-08-07T18:23:42.634Z,26.81
2022-08-07T18:26:01.526Z,26.71
2022-08-07T18:29:04.361Z,26.64
2022-08-07T18:32:05.969Z,26.57
2022-08-07T18:35:08.030Z,26.54
2022-08-07T18:38:57.300Z,26.49
2022-08-07T18:40:57.729Z,26.50
2022-08-07T18:43:57.487Z,26.43
2022-08-07T18:46:47.310Z,26.35
2022-08-07T18:50:32.679Z,26.32
2022-08-07T18:52:54.355Z,26.28
2022-08-07T18:55:41.844Z,26.19
2022-08-07T18:58:25.469Z,26.16
2022-08-07T19:02:17.634Z,26.06
2022-08-07T19:04:13.227Z,26.08
2022-08-07T19:06:49.690Z,25.99
2022-08-07T19:09:56.960Z,25.92
2022-08-07T19:12:58.101Z,25.87
2022-08-07T19:16:05.959Z,25.81
2022-08-07T19:18:34.794Z,25.75
2022-08-07T19:21:51.043Z,25.68
2022-08-07T19:24:38.311Z,25.70
2022-08-07T19:28:57.422Z,25.61
2022-08-07T19:31:01.410Z,25.58
2022-08-07T19:33:10.116Z,25.54
2022-08-07T19:35:43.717Z,25.51
2022-08-07T19:38:16.064Z,25.49
2022-08-07T19:40:50.714Z,25.41
2022-08-07T19:43:48.799Z,25.35
2022-08-07T19:46:22.445Z,25.30
2022-08-07T19:49:04.947Z,25.28
2022-08-07T19:51:51.311Z,25.22
2022-08-07T19:54:32.758Z,25.15
2022-08-07T19:57:59.984Z,25.15
2022-08-07T19:59:57.123Z,25.11
2022-08-07T20:02:31.901Z,25.03
2022-08-07T20:05:04.002Z,25.01
2022-08-07T20:07:47.655Z,24.97
2022-08-07T20:10:38.387Z,24.87
2022-08-07T20:13:31.964Z,24.89
2022-08-07T20:16:03.428Z,24.91
2022-08-07T20:18:34.690Z,24.87
2022-08-07T20:21:14.328Z,24.83
2022-08-07T20:24:00.417Z,24.84
2022-08-07T20:26:38.686Z,24.75
2022-08-07T20:29:49.157Z,24.68
2022-08-07T20:32:06.312Z,24.63
2022-08-07T20:34:50.717Z,24.60
2022-08-07T20:37:33.968Z,24.56
2022-08-07T20:40:05.350Z,24.47
2022-08-07T20:42:56.600Z,24.37
2022-08-07T20:45:32.874Z,24.34
2022-08-07T20:48:30.259Z,24.33
2022-08-07T20:51:04.273Z,24.27
2022-08-07T20:54:03.370Z,24.24
2022-08-07T20:56:33.551Z,24.24
2022-08-07T20:59:05.846Z,24.22
2022-08-07T21:01:46.039Z,24.18
2022-08-07T21:04:31.450Z,24.16
2022-08-07T21:07:04.345Z,24.08
2022-08-07T21:09:53.104Z,24.04
2022-08-07T21:12:31.179Z,24.02
2022-08-07T21:15:03.207Z,23.90
2022-08-07T21:18:17.399Z,23.89
2022-08-07T21:20:29.701Z,23.82
2022-08-07T21:23:08.605Z,23.78
2022-08-07T21:26:03.459Z,23.76
2022-08-07T21:28:51.953Z,23.66
2022-08-07T21:31:31.471Z,23.59
2022-08-07T21:34:14.109Z,23.57
2022-08-07T21:36:53.688Z,23.47
2022-08-07T21:39:46.392Z,23.43
2022-08-07T21:42:42.902Z,23.45
2022-08-07T21:46:09.314Z,23.38
2022-08-07T21:48:42.495Z,23.35
2022-08-07T21:51:54.678Z,23.26
2022-08-07T21:54:34.811Z,23.23
2022-08-07T21:57:39.461Z,23.13
2022-08-07T22:00:22.788Z,23.06
2022-08-07T22:03:05.693Z,22.97
2022-08-07T22:05:46.257Z,22.99
2022-08-07T22:08:20.148Z,22.95
2022-08-07T22:10:52.246Z,22.91
2022-08-07T22:13:23.974Z,22.86
2022-08-07T22:16:39.638Z,22.81
2022-08-07T22:19:29.231Z,22.79
2022-08-07T22:22:20.849Z,22.64
2022-08-07T22:25:05.714Z,22.65
2022-08-07T22:28:20.103Z,22.60
2022-08-07T22:30:58.633Z,22.55
2022-08-07T22:33:57.215Z,22.51
2022-08-07T22:36:42.669Z,22.47
2022-08-07T22:39:53.111Z,22.40
2022-08-07T22:42:26.038Z,22.33
2022-08-07T22:45:02.046Z,22.25
2022-08-07T22:47:53.085Z,22.22
2022-08-07T22:50:38.960Z,22.09
2022-08-07T22:54:07.611Z,22.16
2022-08-07T22:56:40.125Z,22.09
2022-08-07T22:59:21.951Z,22.02
2022-08-07T23:02:04.876Z,21.99
2022-08-07T23:06:09.714Z,21.99
2022-08-07T23:08:07.353Z,21.88
2022-08-07T23:11:13.319Z,21.86
2022-08-07T23:14:15.358Z,21.76
2022-08-07T23:17:01.280Z,21.69
2022-08-07T23:19:57.886Z,21.63
2022-08-07T23:23:05.135Z,21.59
2022-08-07T23:25:49.221Z,21.54
2022-08-07T23:28:53.410Z,21.50
2022-08-07T23:32:49.221Z,21.44
2022-08-07T23:34:51.359Z,21.44
2022-08-07T23:37:30.389Z,21.34
2022-08-07T23:40:10.309Z,21.28
2022-08-07T23:43:02.511Z,21.27
2022-08-07T23:46:02.268Z,21.15
2022-08-07T23:48:51.968Z,21.20
2022-08-07T23:53:05.300Z,21.12
2022-08-07T23:54:35.868Z,21.05
2022-08-07T23:57:23.539Z,21.04
